sensor_id;sensor_type;location;lat;lon;timestamp;P1;durP1;ratioP1;P2;durP2;ratioP2
51750;SDS011;37827;59.558;30.096;2024-03-02T05:51:24;3.78;;;3.47;;
51750;SDS011;37827;59.558;30.096;2024-03-02T05:52:25;3.30;;;3.10;;
51750;SDS011;37827;59.558;30.096;2024-03-02T05:53:25;3.93;;;3.63;;
51750;SDS011;37827;59.558;30.096;2024-03-02T05:54:26;3.73;;;3.43;;
51750;SDS011;37827;59.558;30.096;2024-03-02T05:55:27;3.63;;;3.33;;
51750;SDS011;37827;59.558;30.096;2024-03-02T05:56:28;3.70;;;3.40;;
51750;SDS011;37827;59.558;30.096;2024-03-02T05:57:29;3.63;;;3.33;;
51750;SDS011;37827;59.558;30.096;2024-03-02T05:58:59;3.50;;;3.20;;
51750;SDS011;37827;59.558;30.096;2024-03-02T06:00:09;3.85;;;3.47;;
51750;SDS011;37827;59.558;30.096;2024-03-02T06:01:22;3.85;;;3.55;;
51750;SDS011;37827;59.558;30.096;2024-03-02T06:02:28;4.28;;;3.75;;
51750;SDS011;37827;59.558;30.096;2024-03-02T06:03:31;4.45;;;4.05;;
51750;SDS011;37827;59.558;30.096;2024-03-02T06:04:32;4.23;;;3.90;;
51750;SDS011;37827;59.558;30.096;2024-03-02T06:05:35;5.00;;;4.55;;
51750;SDS011;37827;59.558;30.096;2024-03-02T06:06:48;6.37;;;4.00;;
51750;SDS011;37827;59.558;30.096;2024-03-02T06:07:49;4.22;;;3.83;;
51750;SDS011;37827;59.558;30.096;2024-03-02T06:08:51;4.00;;;3.70;;
51750;SDS011;37827;59.558;30.096;2024-03-02T06:10:30;3.80;;;3.45;;
51750;SDS011;37827;59.558;30.096;2024-03-02T06:11:31;4.07;;;3.77;;
51750;SDS011;37827;59.558;30.096;2024-03-02T06:12:32;3.63;;;3.33;;
51750;SDS011;37827;59.558;30.096;2024-03-02T06:13:38;4.87;;;4.47;;
51750;SDS011;37827;59.558;30.096;2024-03-02T06:14:40;3.80;;;3.50;;
51750;SDS011;37827;59.558;30.096;2024-03-02T06:15:41;4.00;;;3.70;;
51750;SDS011;37827;59.558;30.096;2024-03-02T06:16:42;4.67;;;4.27;;
51750;SDS011;37827;59.558;30.096;2024-03-02T06:17:43;4.10;;;3.80;;
51750;SDS011;37827;59.558;30.096;2024-03-02T06:18:53;4.07;;;3.78;;
51750;SDS011;37827;59.558;30.096;2024-03-02T06:19:54;4.90;;;4.50;;
51750;SDS011;37827;59.558;30.096;2024-03-02T06:20:55;4.57;;;4.18;;
51750;SDS011;37827;59.558;30.096;2024-03-02T06:21:56;3.77;;;3.47;;
51750;SDS011;37827;59.558;30.096;2024-03-02T06:22:58;4.70;;;4.00;;
51750;SDS011;37827;59.558;30.096;2024-03-02T06:25:33;4.88;;;4.47;;
51750;SDS011;37827;59.558;30.096;2024-03-02T06:26:36;3.80;;;3.50;;
51750;SDS011;37827;59.558;30.096;2024-03-02T06:27:48;4.63;;;4.07;;
51750;SDS011;37827;59.558;30.096;2024-03-02T06:29:51;4.75;;;4.28;;
51750;SDS011;37827;59.558;30.096;2024-03-02T06:31:02;5.70;;;4.67;;
51750;SDS011;37827;59.558;30.096;2024-03-02T06:32:02;5.38;;;4.88;;
51750;SDS011;37827;59.558;30.096;2024-03-02T06:33:16;4.35;;;4.00;;
51750;SDS011;37827;59.558;30.096;2024-03-02T06:34:17;4.45;;;4.07;;
51750;SDS011;37827;59.558;30.096;2024-03-02T06:35:18;4.17;;;3.87;;
51750;SDS011;37827;59.558;30.096;2024-03-02T06:36:19;5.00;;;4.50;;
51750;SDS011;37827;59.558;30.096;2024-03-02T06:37:20;4.00;;;3.53;;
51750;SDS011;37827;59.558;30.096;2024-03-02T06:38:20;4.00;;;3.70;;
51750;SDS011;37827;59.558;30.096;2024-03-02T06:39:21;4.50;;;4.10;;
51750;SDS011;37827;59.558;30.096;2024-03-02T06:40:22;4.53;;;4.17;;
51750;SDS011;37827;59.558;30.096;2024-03-02T06:41:25;4.72;;;4.32;;
51750;SDS011;37827;59.558;30.096;2024-03-02T06:42:27;5.43;;;4.90;;
51750;SDS011;37827;59.558;30.096;2024-03-02T06:43:27;4.95;;;4.50;;
51750;SDS011;37827;59.558;30.096;2024-03-02T06:44:28;5.00;;;4.50;;
51750;SDS011;37827;59.558;30.096;2024-03-02T06:45:29;6.65;;;5.28;;
51750;SDS011;37827;59.558;30.096;2024-03-02T06:46:30;5.82;;;4.97;;
51750;SDS011;37827;59.558;30.096;2024-03-02T06:47:41;5.10;;;4.60;;
51750;SDS011;37827;59.558;30.096;2024-03-02T06:48:42;4.70;;;4.15;;
51750;SDS011;37827;59.558;30.096;2024-03-02T06:49:55;4.40;;;4.10;;
51750;SDS011;37827;59.558;30.096;2024-03-02T06:50:57;5.15;;;3.88;;
51750;SDS011;37827;59.558;30.096;2024-03-02T06:51:58;4.63;;;4.23;;
51750;SDS011;37827;59.558;30.096;2024-03-02T06:52:59;5.07;;;4.60;;
51750;SDS011;37827;59.558;30.096;2024-03-02T06:54:12;7.63;;;6.80;;
51750;SDS011;37827;59.558;30.096;2024-03-02T06:55:13;9.67;;;8.00;;
51750;SDS011;37827;59.558;30.096;2024-03-02T06:56:14;9.13;;;6.07;;
51750;SDS011;37827;59.558;30.096;2024-03-02T06:57:15;4.38;;;3.97;;
51750;SDS011;37827;59.558;30.096;2024-03-02T06:58:17;4.93;;;4.53;;
51750;SDS011;37827;59.558;30.096;2024-03-02T06:59:18;3.80;;;3.50;;
51750;SDS011;37827;59.558;30.096;2024-03-02T07:00:31;4.97;;;3.40;;
51750;SDS011;37827;59.558;30.096;2024-03-02T07:01:34;4.28;;;3.92;;
51750;SDS011;37827;59.558;30.096;2024-03-02T07:02:35;4.33;;;3.87;;
51750;SDS011;37827;59.558;30.096;2024-03-02T07:03:36;4.25;;;3.85;;
51750;SDS011;37827;59.558;30.096;2024-03-02T07:04:39;3.85;;;3.42;;
51750;SDS011;37827;59.558;30.096;2024-03-02T07:05:40;5.10;;;4.20;;
51750;SDS011;37827;59.558;30.096;2024-03-02T07:06:42;5.28;;;3.90;;
51750;SDS011;37827;59.558;30.096;2024-03-02T07:07:43;4.80;;;4.30;;
51750;SDS011;37827;59.558;30.096;2024-03-02T07:08:44;3.80;;;3.50;;
51750;SDS011;37827;59.558;30.096;2024-03-02T07:09:44;4.60;;;4.17;;
51750;SDS011;37827;59.558;30.096;2024-03-02T07:10:57;5.00;;;4.40;;
51750;SDS011;37827;59.558;30.096;2024-03-02T07:11:58;4.53;;;3.72;;
51750;SDS011;37827;59.558;30.096;2024-03-02T07:12:59;4.43;;;3.97;;
51750;SDS011;37827;59.558;30.096;2024-03-02T07:14:00;4.63;;;4.17;;
51750;SDS011;37827;59.558;30.096;2024-03-02T07:16:03;4.78;;;4.18;;
51750;SDS011;37827;59.558;30.096;2024-03-02T07:17:04;3.95;;;3.60;;
51750;SDS011;37827;59.558;30.096;2024-03-02T07:18:05;4.75;;;4.28;;
51750;SDS011;37827;59.558;30.096;2024-03-02T07:19:07;4.72;;;4.00;;
51750;SDS011;37827;59.558;30.096;2024-03-02T07:20:08;4.78;;;3.72;;
51750;SDS011;37827;59.558;30.096;2024-03-02T07:21:09;4.22;;;3.75;;
51750;SDS011;37827;59.558;30.096;2024-03-02T07:22:10;2.85;;;2.65;;
51750;SDS011;37827;59.558;30.096;2024-03-02T07:23:12;4.30;;;3.90;;
51750;SDS011;37827;59.558;30.096;2024-03-02T07:24:13;4.80;;;3.93;;
51750;SDS011;37827;59.558;30.096;2024-03-02T07:25:15;3.63;;;3.33;;
51750;SDS011;37827;59.558;30.096;2024-03-02T07:26:15;3.63;;;3.27;;
51750;SDS011;37827;59.558;30.096;2024-03-02T07:27:18;3.65;;;3.35;;
51750;SDS011;37827;59.558;30.096;2024-03-02T07:28:19;6.33;;;4.07;;
51750;SDS011;37827;59.558;30.096;2024-03-02T07:29:20;4.40;;;4.00;;
51750;SDS011;37827;59.558;30.096;2024-03-02T07:30:21;5.87;;;4.33;;
51750;SDS011;37827;59.558;30.096;2024-03-02T07:31:34;5.90;;;3.80;;
51750;SDS011;37827;59.558;30.096;2024-03-02T07:32:35;4.07;;;3.53;;
51750;SDS011;37827;59.558;30.096;2024-03-02T07:33:36;4.30;;;3.90;;
51750;SDS011;37827;59.558;30.096;2024-03-02T07:34:37;5.65;;;4.20;;
51750;SDS011;37827;59.558;30.096;2024-03-02T07:35:38;6.80;;;3.88;;
51750;SDS011;37827;59.558;30.096;2024-03-02T07:36:39;4.07;;;3.67;;
51750;SDS011;37827;59.558;30.096;2024-03-02T07:37:41;4.93;;;3.38;;
51750;SDS011;37827;59.558;30.096;2024-03-02T07:38:43;3.85;;;3.45;;
51750;SDS011;37827;59.558;30.096;2024-03-02T07:40:45;4.15;;;3.40;;
51750;SDS011;37827;59.558;30.096;2024-03-02T07:41:46;4.00;;;3.60;;
51750;SDS011;37827;59.558;30.096;2024-03-02T07:42:48;3.92;;;3.47;;
51750;SDS011;37827;59.558;30.096;2024-03-02T07:43:49;4.77;;;3.60;;
51750;SDS011;37827;59.558;30.096;2024-03-02T07:44:50;4.20;;;3.70;;
51750;SDS011;37827;59.558;30.096;2024-03-02T07:45:51;3.85;;;3.45;;
51750;SDS011;37827;59.558;30.096;2024-03-02T07:46:52;5.73;;;4.40;;
51750;SDS011;37827;59.558;30.096;2024-03-02T07:47:52;3.50;;;3.20;;
51750;SDS011;37827;59.558;30.096;2024-03-02T07:48:54;4.70;;;4.30;;
51750;SDS011;37827;59.558;30.096;2024-03-02T07:49:55;4.30;;;3.90;;
51750;SDS011;37827;59.558;30.096;2024-03-02T07:51:09;6.95;;;4.05;;
51750;SDS011;37827;59.558;30.096;2024-03-02T07:52:13;4.65;;;4.10;;
51750;SDS011;37827;59.558;30.096;2024-03-02T07:53:14;4.10;;;3.67;;
51750;SDS011;37827;59.558;30.096;2024-03-02T07:54:14;5.35;;;4.80;;
51750;SDS011;37827;59.558;30.096;2024-03-02T07:55:25;5.68;;;4.43;;
51750;SDS011;37827;59.558;30.096;2024-03-02T07:56:26;4.53;;;4.13;;
51750;SDS011;37827;59.558;30.096;2024-03-02T07:57:27;4.97;;;3.85;;
51750;SDS011;37827;59.558;30.096;2024-03-02T07:58:47;4.30;;;3.90;;
51750;SDS011;37827;59.558;30.096;2024-03-02T07:59:49;4.53;;;3.67;;
51750;SDS011;37827;59.558;30.096;2024-03-02T08:00:50;3.92;;;3.55;;
51750;SDS011;37827;59.558;30.096;2024-03-02T08:01:51;4.28;;;3.90;;
51750;SDS011;37827;59.558;30.096;2024-03-02T08:02:52;4.40;;;4.00;;
51750;SDS011;37827;59.558;30.096;2024-03-02T08:03:53;5.07;;;4.57;;
51750;SDS011;37827;59.558;30.096;2024-03-02T08:04:55;5.45;;;4.93;;
51750;SDS011;37827;59.558;30.096;2024-03-02T08:05:56;4.90;;;3.20;;
51750;SDS011;37827;59.558;30.096;2024-03-02T08:06:57;5.57;;;4.30;;
51750;SDS011;37827;59.558;30.096;2024-03-02T08:07:58;4.57;;;4.17;;
51750;SDS011;37827;59.558;30.096;2024-03-02T08:09:12;4.70;;;4.05;;
51750;SDS011;37827;59.558;30.096;2024-03-02T08:10:13;3.93;;;3.40;;
51750;SDS011;37827;59.558;30.096;2024-03-02T08:11:14;4.82;;;3.90;;
51750;SDS011;37827;59.558;30.096;2024-03-02T08:12:15;4.35;;;3.95;;
51750;SDS011;37827;59.558;30.096;2024-03-02T08:13:16;3.97;;;3.57;;
51750;SDS011;37827;59.558;30.096;2024-03-02T08:14:17;5.83;;;3.57;;
51750;SDS011;37827;59.558;30.096;2024-03-02T08:15:18;5.23;;;4.10;;
51750;SDS011;37827;59.558;30.096;2024-03-02T08:16:19;4.38;;;3.97;;
51750;SDS011;37827;59.558;30.096;2024-03-02T08:17:20;5.63;;;4.50;;
51750;SDS011;37827;59.558;30.096;2024-03-02T08:18:33;4.40;;;4.00;;
51750;SDS011;37827;59.558;30.096;2024-03-02T08:19:47;4.40;;;3.55;;
51750;SDS011;37827;59.558;30.096;2024-03-02T08:21:00;4.22;;;3.90;;
51750;SDS011;37827;59.558;30.096;2024-03-02T08:22:14;4.57;;;4.18;;
51750;SDS011;37827;59.558;30.096;2024-03-02T08:23:15;3.45;;;2.78;;
51750;SDS011;37827;59.558;30.096;2024-03-02T08:24:18;3.88;;;3.58;;
51750;SDS011;37827;59.558;30.096;2024-03-02T08:28:07;4.82;;;3.97;;
51750;SDS011;37827;59.558;30.096;2024-03-02T08:29:20;4.30;;;3.78;;
51750;SDS011;37827;59.558;30.096;2024-03-02T08:30:21;5.27;;;3.93;;
51750;SDS011;37827;59.558;30.096;2024-03-02T08:31:24;7.03;;;4.63;;
51750;SDS011;37827;59.558;30.096;2024-03-02T08:32:25;6.60;;;5.53;;
51750;SDS011;37827;59.558;30.096;2024-03-02T08:33:26;5.77;;;5.27;;
51750;SDS011;37827;59.558;30.096;2024-03-02T08:34:27;7.03;;;5.87;;
51750;SDS011;37827;59.558;30.096;2024-03-02T08:35:28;6.53;;;5.60;;
51750;SDS011;37827;59.558;30.096;2024-03-02T08:36:29;5.67;;;5.17;;
51750;SDS011;37827;59.558;30.096;2024-03-02T08:37:30;6.27;;;5.53;;
51750;SDS011;37827;59.558;30.096;2024-03-02T08:38:41;6.93;;;5.60;;
51750;SDS011;37827;59.558;30.096;2024-03-02T08:39:42;5.68;;;5.10;;
51750;SDS011;37827;59.558;30.096;2024-03-02T08:40:44;6.50;;;5.07;;
51750;SDS011;37827;59.558;30.096;2024-03-02T08:41:45;6.57;;;5.90;;
51750;SDS011;37827;59.558;30.096;2024-03-02T08:42:47;7.40;;;5.93;;
51750;SDS011;37827;59.558;30.096;2024-03-02T08:44:03;6.95;;;6.25;;
51750;SDS011;37827;59.558;30.096;2024-03-02T08:45:04;6.88;;;5.93;;
51750;SDS011;37827;59.558;30.096;2024-03-02T08:46:06;6.53;;;4.47;;
51750;SDS011;37827;59.558;30.096;2024-03-02T08:47:07;7.80;;;5.40;;
51750;SDS011;37827;59.558;30.096;2024-03-02T08:48:08;6.90;;;5.23;;
51750;SDS011;37827;59.558;30.096;2024-03-02T08:49:18;5.33;;;4.83;;
51750;SDS011;37827;59.558;30.096;2024-03-02T08:50:19;6.35;;;4.97;;
51750;SDS011;37827;59.558;30.096;2024-03-02T08:51:20;6.07;;;4.63;;
51750;SDS011;37827;59.558;30.096;2024-03-02T08:52:33;5.57;;;4.60;;
51750;SDS011;37827;59.558;30.096;2024-03-02T08:53:44;5.45;;;4.90;;
51750;SDS011;37827;59.558;30.096;2024-03-02T08:54:45;5.33;;;4.80;;
51750;SDS011;37827;59.558;30.096;2024-03-02T08:55:46;4.80;;;4.30;;
51750;SDS011;37827;59.558;30.096;2024-03-02T08:56:47;7.50;;;5.07;;
51750;SDS011;37827;59.558;30.096;2024-03-02T08:57:49;7.05;;;5.65;;
51750;SDS011;37827;59.558;30.096;2024-03-02T08:58:51;5.80;;;5.20;;
51750;SDS011;37827;59.558;30.096;2024-03-02T09:01:17;5.30;;;4.80;;
51750;SDS011;37827;59.558;30.096;2024-03-02T09:02:39;4.72;;;4.30;;
51750;SDS011;37827;59.558;30.096;2024-03-02T09:03:41;5.87;;;5.27;;
51750;SDS011;37827;59.558;30.096;2024-03-02T09:04:47;5.93;;;4.47;;
51750;SDS011;37827;59.558;30.096;2024-03-02T09:05:47;4.28;;;3.88;;
51750;SDS011;37827;59.558;30.096;2024-03-02T09:06:48;5.07;;;4.40;;
51750;SDS011;37827;59.558;30.096;2024-03-02T09:07:49;6.83;;;4.60;;
51750;SDS011;37827;59.558;30.096;2024-03-02T09:09:03;6.18;;;5.10;;
51750;SDS011;37827;59.558;30.096;2024-03-02T09:10:05;5.07;;;4.57;;
51750;SDS011;37827;59.558;30.096;2024-03-02T09:11:06;5.05;;;4.65;;
51750;SDS011;37827;59.558;30.096;2024-03-02T09:12:07;5.10;;;4.60;;
51750;SDS011;37827;59.558;30.096;2024-03-02T09:13:20;5.72;;;5.07;;
51750;SDS011;37827;59.558;30.096;2024-03-02T09:14:22;5.93;;;4.70;;
51750;SDS011;37827;59.558;30.096;2024-03-02T09:15:23;4.72;;;4.25;;
51750;SDS011;37827;59.558;30.096;2024-03-02T09:16:24;5.30;;;4.80;;
51750;SDS011;37827;59.558;30.096;2024-03-02T09:17:30;4.68;;;4.28;;
51750;SDS011;37827;59.558;30.096;2024-03-02T09:18:31;5.47;;;4.93;;
51750;SDS011;37827;59.558;30.096;2024-03-02T09:19:32;6.00;;;5.07;;
51750;SDS011;37827;59.558;30.096;2024-03-02T09:20:33;5.97;;;4.47;;
51750;SDS011;37827;59.558;30.096;2024-03-02T09:21:46;4.65;;;4.25;;
51750;SDS011;37827;59.558;30.096;2024-03-02T09:22:46;5.73;;;4.53;;
51750;SDS011;37827;59.558;30.096;2024-03-02T09:23:48;5.38;;;4.88;;
51750;SDS011;37827;59.558;30.096;2024-03-02T09:24:49;5.50;;;4.67;;
51750;SDS011;37827;59.558;30.096;2024-03-02T09:25:50;5.17;;;4.70;;
51750;SDS011;37827;59.558;30.096;2024-03-02T09:26:52;5.63;;;5.07;;
51750;SDS011;37827;59.558;30.096;2024-03-02T09:27:52;5.00;;;4.50;;
51750;SDS011;37827;59.558;30.096;2024-03-02T09:29:05;7.72;;;4.57;;
51750;SDS011;37827;59.558;30.096;2024-03-02T09:30:09;4.83;;;4.40;;
51750;SDS011;37827;59.558;30.096;2024-03-02T09:31:11;5.90;;;4.70;;
51750;SDS011;37827;59.558;30.096;2024-03-02T09:32:12;5.32;;;4.43;;
51750;SDS011;37827;59.558;30.096;2024-03-02T09:34:14;5.47;;;4.70;;
51750;SDS011;37827;59.558;30.096;2024-03-02T09:35:16;5.55;;;4.05;;
51750;SDS011;37827;59.558;30.096;2024-03-02T09:36:17;5.03;;;4.27;;
51750;SDS011;37827;59.558;30.096;2024-03-02T09:37:30;5.30;;;4.78;;
51750;SDS011;37827;59.558;30.096;2024-03-02T09:38:34;4.50;;;4.10;;
51750;SDS011;37827;59.558;30.096;2024-03-02T09:39:35;5.57;;;5.07;;
51750;SDS011;37827;59.558;30.096;2024-03-02T09:40:50;6.05;;;5.45;;
51750;SDS011;37827;59.558;30.096;2024-03-02T09:41:51;7.25;;;5.57;;
51750;SDS011;37827;59.558;30.096;2024-03-02T09:42:53;5.25;;;4.60;;
51750;SDS011;37827;59.558;30.096;2024-03-02T09:43:56;5.88;;;5.30;;
51750;SDS011;37827;59.558;30.096;2024-03-02T09:44:57;7.53;;;4.72;;
51750;SDS011;37827;59.558;30.096;2024-03-02T09:45:58;6.07;;;5.20;;
51750;SDS011;37827;59.558;30.096;2024-03-02T09:47:12;10.50;;;4.63;;
51750;SDS011;37827;59.558;30.096;2024-03-02T09:48:13;5.75;;;4.95;;
51750;SDS011;37827;59.558;30.096;2024-03-02T09:49:26;5.57;;;4.75;;
51750;SDS011;37827;59.558;30.096;2024-03-02T09:50:27;5.77;;;4.97;;
51750;SDS011;37827;59.558;30.096;2024-03-02T09:51:28;5.07;;;4.53;;
51750;SDS011;37827;59.558;30.096;2024-03-02T09:52:29;14.68;;;8.65;;
51750;SDS011;37827;59.558;30.096;2024-03-02T09:53:42;5.25;;;4.63;;
51750;SDS011;37827;59.558;30.096;2024-03-02T09:54:43;6.25;;;5.63;;
51750;SDS011;37827;59.558;30.096;2024-03-02T09:55:47;11.10;;;6.35;;
51750;SDS011;37827;59.558;30.096;2024-03-02T09:56:58;6.00;;;4.68;;
51750;SDS011;37827;59.558;30.096;2024-03-02T09:58:01;5.28;;;4.78;;
51750;SDS011;37827;59.558;30.096;2024-03-02T09:59:03;6.35;;;5.00;;
51750;SDS011;37827;59.558;30.096;2024-03-02T10:00:05;5.80;;;5.05;;
51750;SDS011;37827;59.558;30.096;2024-03-02T10:02:07;3.95;;;3.60;;
51750;SDS011;37827;59.558;30.096;2024-03-02T10:03:12;4.77;;;4.30;;
51750;SDS011;37827;59.558;30.096;2024-03-02T10:04:13;5.40;;;4.85;;
51750;SDS011;37827;59.558;30.096;2024-03-02T10:06:22;4.90;;;4.20;;
51750;SDS011;37827;59.558;30.096;2024-03-02T10:07:24;6.05;;;4.97;;
51750;SDS011;37827;59.558;30.096;2024-03-02T10:08:25;6.00;;;4.22;;
51750;SDS011;37827;59.558;30.096;2024-03-02T10:09:29;7.00;;;5.53;;
51750;SDS011;37827;59.558;30.096;2024-03-02T10:10:36;8.07;;;5.90;;
51750;SDS011;37827;59.558;30.096;2024-03-02T10:12:42;6.50;;;5.53;;
51750;SDS011;37827;59.558;30.096;2024-03-02T10:13:43;4.55;;;4.15;;
51750;SDS011;37827;59.558;30.096;2024-03-02T10:14:44;6.30;;;5.40;;
51750;SDS011;37827;59.558;30.096;2024-03-02T10:15:46;6.80;;;5.20;;
51750;SDS011;37827;59.558;30.096;2024-03-02T10:17:07;4.63;;;4.22;;
51750;SDS011;37827;59.558;30.096;2024-03-02T10:18:10;6.88;;;5.07;;
51750;SDS011;37827;59.558;30.096;2024-03-02T10:19:16;5.45;;;4.70;;
51750;SDS011;37827;59.558;30.096;2024-03-02T10:20:26;5.80;;;4.95;;
51750;SDS011;37827;59.558;30.096;2024-03-02T10:21:32;6.57;;;5.80;;
51750;SDS011;37827;59.558;30.096;2024-03-02T10:22:33;5.63;;;4.83;;
51750;SDS011;37827;59.558;30.096;2024-03-02T10:23:34;6.70;;;5.25;;
51750;SDS011;37827;59.558;30.096;2024-03-02T10:24:36;5.95;;;5.20;;
51750;SDS011;37827;59.558;30.096;2024-03-02T10:25:42;6.28;;;5.55;;
51750;SDS011;37827;59.558;30.096;2024-03-02T10:26:44;7.00;;;4.97;;
51750;SDS011;37827;59.558;30.096;2024-03-02T10:27:45;6.15;;;4.93;;
51750;SDS011;37827;59.558;30.096;2024-03-02T10:28:50;7.85;;;6.05;;
51750;SDS011;37827;59.558;30.096;2024-03-02T10:29:59;8.73;;;7.20;;
51750;SDS011;37827;59.558;30.096;2024-03-02T10:31:02;6.05;;;5.45;;
51750;SDS011;37827;59.558;30.096;2024-03-02T10:32:04;8.10;;;6.83;;
51750;SDS011;37827;59.558;30.096;2024-03-02T10:33:06;7.00;;;5.82;;
